sensor_id;sensor_type;location;lat;lon;timestamp;P1;durP1;ratioP1;P2;durP2;ratioP2
56239;SDS011;42154;51.992;5.896;2024-03-25T00:00:40;12.23;;;3.40;;
56239;SDS011;42154;51.992;5.896;2024-03-25T00:03:05;13.02;;;2.83;;
56239;SDS011;42154;51.992;5.896;2024-03-25T00:05:31;10.52;;;2.72;;
56239;SDS011;42154;51.992;5.896;2024-03-25T00:07:57;12.45;;;2.33;;
56239;SDS011;42154;51.992;5.896;2024-03-25T00:10:23;12.15;;;2.55;;
56239;SDS011;42154;51.992;5.896;2024-03-25T00:12:49;8.85;;;2.50;;
56239;SDS011;42154;51.992;5.896;2024-03-25T00:15:19;8.77;;;2.20;;
56239;SDS011;42154;51.992;5.896;2024-03-25T00:17:46;10.95;;;2.75;;
56239;SDS011;42154;51.992;5.896;2024-03-25T00:20:12;9.77;;;2.67;;
56239;SDS011;42154;51.992;5.896;2024-03-25T00:22:40;10.52;;;2.38;;
56239;SDS011;42154;51.992;5.896;2024-03-25T00:25:06;14.18;;;3.13;;
56239;SDS011;42154;51.992;5.896;2024-03-25T00:27:33;13.13;;;3.42;;
56239;SDS011;42154;51.992;5.896;2024-03-25T00:29:59;11.75;;;2.90;;
56239;SDS011;42154;51.992;5.896;2024-03-25T00:32:24;10.55;;;2.55;;
56239;SDS011;42154;51.992;5.896;2024-03-25T00:34:50;10.65;;;2.75;;
56239;SDS011;42154;51.992;5.896;2024-03-25T00:37:16;11.60;;;2.58;;
56239;SDS011;42154;51.992;5.896;2024-03-25T00:39:41;13.35;;;2.95;;
56239;SDS011;42154;51.992;5.896;2024-03-25T00:42:07;8.38;;;2.40;;
56239;SDS011;42154;51.992;5.896;2024-03-25T00:44:33;12.60;;;2.60;;
56239;SDS011;42154;51.992;5.896;2024-03-25T00:46:58;12.73;;;2.50;;
56239;SDS011;42154;51.992;5.896;2024-03-25T00:49:24;8.88;;;2.63;;
56239;SDS011;42154;51.992;5.896;2024-03-25T00:51:50;8.43;;;2.20;;
56239;SDS011;42154;51.992;5.896;2024-03-25T00:54:16;10.65;;;2.70;;
56239;SDS011;42154;51.992;5.896;2024-03-25T00:56:41;10.50;;;2.85;;
56239;SDS011;42154;51.992;5.896;2024-03-25T00:59:07;7.32;;;2.50;;
56239;SDS011;42154;51.992;5.896;2024-03-25T01:01:33;14.45;;;2.38;;
56239;SDS011;42154;51.992;5.896;2024-03-25T01:04:01;9.70;;;2.13;;
56239;SDS011;42154;51.992;5.896;2024-03-25T01:06:27;14.73;;;3.13;;
56239;SDS011;42154;51.992;5.896;2024-03-25T01:08:52;12.68;;;2.78;;
56239;SDS011;42154;51.992;5.896;2024-03-25T01:11:18;11.40;;;2.17;;
56239;SDS011;42154;51.992;5.896;2024-03-25T01:13:44;11.18;;;2.50;;
56239;SDS011;42154;51.992;5.896;2024-03-25T01:16:09;10.93;;;2.22;;
56239;SDS011;42154;51.992;5.896;2024-03-25T01:18:35;9.02;;;2.17;;
56239;SDS011;42154;51.992;5.896;2024-03-25T01:21:01;9.35;;;2.88;;
56239;SDS011;42154;51.992;5.896;2024-03-25T01:23:27;14.05;;;2.80;;
56239;SDS011;42154;51.992;5.896;2024-03-25T01:25:54;7.10;;;2.33;;
56239;SDS011;42154;51.992;5.896;2024-03-25T01:28:19;8.45;;;2.20;;
56239;SDS011;42154;51.992;5.896;2024-03-25T01:30:45;7.63;;;1.80;;
56239;SDS011;42154;51.992;5.896;2024-03-25T01:33:11;8.38;;;2.55;;
56239;SDS011;42154;51.992;5.896;2024-03-25T01:35:36;10.95;;;2.65;;
56239;SDS011;42154;51.992;5.896;2024-03-25T01:38:02;12.60;;;2.63;;
56239;SDS011;42154;51.992;5.896;2024-03-25T01:40:28;12.23;;;2.22;;
56239;SDS011;42154;51.992;5.896;2024-03-25T01:42:55;12.70;;;2.60;;
56239;SDS011;42154;51.992;5.896;2024-03-25T01:45:25;9.68;;;2.33;;
56239;SDS011;42154;51.992;5.896;2024-03-25T01:47:52;12.57;;;2.40;;
56239;SDS011;42154;51.992;5.896;2024-03-25T01:50:19;19.05;;;3.75;;
56239;SDS011;42154;51.992;5.896;2024-03-25T01:52:46;15.05;;;2.92;;
56239;SDS011;42154;51.992;5.896;2024-03-25T01:55:12;10.70;;;2.72;;
56239;SDS011;42154;51.992;5.896;2024-03-25T01:57:43;9.88;;;2.20;;
56239;SDS011;42154;51.992;5.896;2024-03-25T02:00:10;13.27;;;2.42;;
56239;SDS011;42154;51.992;5.896;2024-03-25T02:02:44;13.05;;;2.97;;
56239;SDS011;42154;51.992;5.896;2024-03-25T02:05:12;11.90;;;2.65;;
56239;SDS011;42154;51.992;5.896;2024-03-25T02:07:42;7.45;;;1.75;;
56239;SDS011;42154;51.992;5.896;2024-03-25T02:10:08;11.68;;;2.83;;
56239;SDS011;42154;51.992;5.896;2024-03-25T02:12:44;11.68;;;3.33;;
56239;SDS011;42154;51.992;5.896;2024-03-25T02:15:11;13.25;;;3.00;;
56239;SDS011;42154;51.992;5.896;2024-03-25T02:17:38;13.23;;;2.97;;
56239;SDS011;42154;51.992;5.896;2024-03-25T02:20:04;17.63;;;3.42;;
56239;SDS011;42154;51.992;5.896;2024-03-25T02:22:32;15.52;;;3.03;;
56239;SDS011;42154;51.992;5.896;2024-03-25T02:24:58;20.63;;;4.00;;
56239;SDS011;42154;51.992;5.896;2024-03-25T02:27:25;20.95;;;3.80;;
56239;SDS011;42154;51.992;5.896;2024-03-25T02:29:53;8.55;;;2.75;;
56239;SDS011;42154;51.992;5.896;2024-03-25T02:32:20;15.20;;;3.55;;
56239;SDS011;42154;51.992;5.896;2024-03-25T02:34:51;18.30;;;3.25;;
56239;SDS011;42154;51.992;5.896;2024-03-25T02:37:17;19.05;;;3.85;;
56239;SDS011;42154;51.992;5.896;2024-03-25T02:39:44;15.15;;;4.13;;
56239;SDS011;42154;51.992;5.896;2024-03-25T02:42:10;10.65;;;3.17;;
56239;SDS011;42154;51.992;5.896;2024-03-25T02:44:36;11.65;;;3.38;;
56239;SDS011;42154;51.992;5.896;2024-03-25T02:47:02;13.23;;;3.83;;
56239;SDS011;42154;51.992;5.896;2024-03-25T02:49:29;14.68;;;3.50;;
56239;SDS011;42154;51.992;5.896;2024-03-25T02:51:55;11.50;;;2.90;;
56239;SDS011;42154;51.992;5.896;2024-03-25T02:54:21;15.43;;;3.63;;
56239;SDS011;42154;51.992;5.896;2024-03-25T02:56:47;9.85;;;2.88;;
56239;SDS011;42154;51.992;5.896;2024-03-25T02:59:12;14.93;;;3.17;;
56239;SDS011;42154;51.992;5.896;2024-03-25T03:01:38;14.40;;;3.53;;
56239;SDS011;42154;51.992;5.896;2024-03-25T03:04:04;13.63;;;2.92;;
56239;SDS011;42154;51.992;5.896;2024-03-25T03:06:29;14.15;;;2.88;;
56239;SDS011;42154;51.992;5.896;2024-03-25T03:08:55;16.02;;;3.17;;
56239;SDS011;42154;51.992;5.896;2024-03-25T03:11:21;16.58;;;3.45;;
56239;SDS011;42154;51.992;5.896;2024-03-25T03:13:46;14.05;;;3.85;;
56239;SDS011;42154;51.992;5.896;2024-03-25T03:16:12;17.38;;;3.50;;
56239;SDS011;42154;51.992;5.896;2024-03-25T03:18:38;10.90;;;3.20;;
56239;SDS011;42154;51.992;5.896;2024-03-25T03:21:04;17.52;;;3.38;;
56239;SDS011;42154;51.992;5.896;2024-03-25T03:23:30;14.82;;;3.03;;
56239;SDS011;42154;51.992;5.896;2024-03-25T03:25:56;17.27;;;3.40;;
56239;SDS011;42154;51.992;5.896;2024-03-25T03:28:25;14.05;;;4.03;;
56239;SDS011;42154;51.992;5.896;2024-03-25T03:30:50;15.23;;;3.10;;
56239;SDS011;42154;51.992;5.896;2024-03-25T03:33:16;9.95;;;3.10;;
56239;SDS011;42154;51.992;5.896;2024-03-25T03:35:42;12.40;;;3.08;;
56239;SDS011;42154;51.992;5.896;2024-03-25T03:38:08;12.45;;;2.88;;
56239;SDS011;42154;51.992;5.896;2024-03-25T03:40:34;11.90;;;3.10;;
56239;SDS011;42154;51.992;5.896;2024-03-25T03:42:59;9.18;;;2.80;;
56239;SDS011;42154;51.992;5.896;2024-03-25T03:45:25;9.65;;;2.75;;
56239;SDS011;42154;51.992;5.896;2024-03-25T03:47:51;9.88;;;3.35;;
56239;SDS011;42154;51.992;5.896;2024-03-25T03:50:17;8.18;;;3.28;;
56239;SDS011;42154;51.992;5.896;2024-03-25T03:52:42;11.23;;;3.50;;
56239;SDS011;42154;51.992;5.896;2024-03-25T03:55:08;9.85;;;2.90;;
56239;SDS011;42154;51.992;5.896;2024-03-25T03:57:34;10.93;;;3.00;;
56239;SDS011;42154;51.992;5.896;2024-03-25T04:00:00;7.45;;;2.67;;
56239;SDS011;42154;51.992;5.896;2024-03-25T04:02:27;11.38;;;2.83;;
56239;SDS011;42154;51.992;5.896;2024-03-25T04:04:56;9.38;;;3.08;;
56239;SDS011;42154;51.992;5.896;2024-03-25T04:07:22;14.55;;;3.65;;
56239;SDS011;42154;51.992;5.896;2024-03-25T04:09:53;11.10;;;3.08;;
56239;SDS011;42154;51.992;5.896;2024-03-25T04:12:19;11.85;;;3.47;;
56239;SDS011;42154;51.992;5.896;2024-03-25T04:14:48;9.57;;;3.30;;
56239;SDS011;42154;51.992;5.896;2024-03-25T04:17:18;9.75;;;3.13;;
56239;SDS011;42154;51.992;5.896;2024-03-25T04:19:43;8.98;;;3.13;;
56239;SDS011;42154;51.992;5.896;2024-03-25T04:22:09;7.10;;;3.05;;
56239;SDS011;42154;51.992;5.896;2024-03-25T04:24:35;9.27;;;3.20;;
56239;SDS011;42154;51.992;5.896;2024-03-25T04:27:01;10.90;;;3.15;;
56239;SDS011;42154;51.992;5.896;2024-03-25T04:29:26;11.82;;;3.47;;
56239;SDS011;42154;51.992;5.896;2024-03-25T04:31:54;10.38;;;3.47;;
56239;SDS011;42154;51.992;5.896;2024-03-25T04:34:20;11.07;;;3.05;;
56239;SDS011;42154;51.992;5.896;2024-03-25T04:36:46;8.52;;;2.90;;
56239;SDS011;42154;51.992;5.896;2024-03-25T04:39:11;9.95;;;3.72;;
56239;SDS011;42154;51.992;5.896;2024-03-25T04:41:37;12.13;;;3.50;;
56239;SDS011;42154;51.992;5.896;2024-03-25T04:44:03;12.05;;;3.35;;
56239;SDS011;42154;51.992;5.896;2024-03-25T04:46:28;8.27;;;3.08;;
56239;SDS011;42154;51.992;5.896;2024-03-25T04:48:54;8.82;;;3.28;;
56239;SDS011;42154;51.992;5.896;2024-03-25T04:51:20;11.65;;;3.88;;
56239;SDS011;42154;51.992;5.896;2024-03-25T04:53:46;9.32;;;3.70;;
56239;SDS011;42154;51.992;5.896;2024-03-25T04:56:12;14.45;;;4.00;;
56239;SDS011;42154;51.992;5.896;2024-03-25T04:58:38;11.60;;;4.28;;
56239;SDS011;42154;51.992;5.896;2024-03-25T05:01:04;15.70;;;4.97;;
56239;SDS011;42154;51.992;5.896;2024-03-25T05:03:30;8.65;;;4.22;;
56239;SDS011;42154;51.992;5.896;2024-03-25T05:05:55;10.80;;;4.10;;
56239;SDS011;42154;51.992;5.896;2024-03-25T05:08:21;9.05;;;3.33;;
56239;SDS011;42154;51.992;5.896;2024-03-25T05:10:47;12.40;;;3.90;;
56239;SDS011;42154;51.992;5.896;2024-03-25T05:13:13;11.38;;;4.07;;
56239;SDS011;42154;51.992;5.896;2024-03-25T05:15:39;7.63;;;3.70;;
56239;SDS011;42154;51.992;5.896;2024-03-25T05:18:05;10.52;;;3.58;;
56239;SDS011;42154;51.992;5.896;2024-03-25T05:20:31;13.80;;;4.53;;
56239;SDS011;42154;51.992;5.896;2024-03-25T05:22:56;10.13;;;4.10;;
56239;SDS011;42154;51.992;5.896;2024-03-25T05:25:22;10.18;;;4.15;;
56239;SDS011;42154;51.992;5.896;2024-03-25T05:27:53;17.27;;;4.35;;
56239;SDS011;42154;51.992;5.896;2024-03-25T05:30:19;9.20;;;4.13;;
56239;SDS011;42154;51.992;5.896;2024-03-25T05:32:45;11.18;;;5.10;;
56239;SDS011;42154;51.992;5.896;2024-03-25T05:35:10;13.27;;;5.25;;
56239;SDS011;42154;51.992;5.896;2024-03-25T05:37:36;14.90;;;5.15;;
56239;SDS011;42154;51.992;5.896;2024-03-25T05:40:02;11.48;;;4.47;;
56239;SDS011;42154;51.992;5.896;2024-03-25T05:42:28;10.80;;;4.75;;
56239;SDS011;42154;51.992;5.896;2024-03-25T05:44:54;12.35;;;5.05;;
56239;SDS011;42154;51.992;5.896;2024-03-25T05:47:20;13.45;;;4.68;;
56239;SDS011;42154;51.992;5.896;2024-03-25T05:49:46;12.40;;;4.82;;
56239;SDS011;42154;51.992;5.896;2024-03-25T05:52:12;17.13;;;5.30;;
56239;SDS011;42154;51.992;5.896;2024-03-25T05:54:38;11.48;;;4.97;;
56239;SDS011;42154;51.992;5.896;2024-03-25T05:57:03;12.43;;;5.00;;
56239;SDS011;42154;51.992;5.896;2024-03-25T05:59:29;13.15;;;4.63;;
56239;SDS011;42154;51.992;5.896;2024-03-25T06:01:55;15.13;;;5.55;;
56239;SDS011;42154;51.992;5.896;2024-03-25T06:04:20;12.55;;;4.75;;
56239;SDS011;42154;51.992;5.896;2024-03-25T06:06:46;12.20;;;4.85;;
56239;SDS011;42154;51.992;5.896;2024-03-25T06:09:12;11.45;;;4.97;;
56239;SDS011;42154;51.992;5.896;2024-03-25T06:11:37;10.68;;;4.43;;
56239;SDS011;42154;51.992;5.896;2024-03-25T06:14:03;12.48;;;4.20;;
56239;SDS011;42154;51.992;5.896;2024-03-25T06:16:29;11.10;;;4.18;;
56239;SDS011;42154;51.992;5.896;2024-03-25T06:18:54;10.70;;;4.25;;
56239;SDS011;42154;51.992;5.896;2024-03-25T06:21:20;13.90;;;4.63;;
56239;SDS011;42154;51.992;5.896;2024-03-25T06:23:47;11.07;;;4.88;;
56239;SDS011;42154;51.992;5.896;2024-03-25T06:26:13;9.55;;;3.80;;
56239;SDS011;42154;51.992;5.896;2024-03-25T06:28:38;9.20;;;3.83;;
56239;SDS011;42154;51.992;5.896;2024-03-25T06:31:04;9.30;;;3.55;;
56239;SDS011;42154;51.992;5.896;2024-03-25T06:33:49;12.75;;;3.95;;
56239;SDS011;42154;51.992;5.896;2024-03-25T06:36:33;10.05;;;3.55;;
56239;SDS011;42154;51.992;5.896;2024-03-25T06:39:00;9.60;;;3.42;;
56239;SDS011;42154;51.992;5.896;2024-03-25T06:41:26;9.23;;;3.78;;
56239;SDS011;42154;51.992;5.896;2024-03-25T06:43:53;12.85;;;3.95;;
56239;SDS011;42154;51.992;5.896;2024-03-25T06:46:19;9.15;;;3.70;;
56239;SDS011;42154;51.992;5.896;2024-03-25T06:48:44;7.85;;;3.60;;
56239;SDS011;42154;51.992;5.896;2024-03-25T06:51:10;9.20;;;3.25;;
56239;SDS011;42154;51.992;5.896;2024-03-25T06:53:36;10.07;;;3.80;;
56239;SDS011;42154;51.992;5.896;2024-03-25T06:56:02;7.35;;;3.08;;
56239;SDS011;42154;51.992;5.896;2024-03-25T06:58:28;8.45;;;3.22;;
56239;SDS011;42154;51.992;5.896;2024-03-25T07:00:54;10.55;;;4.07;;
56239;SDS011;42154;51.992;5.896;2024-03-25T07:03:22;12.15;;;3.63;;
56239;SDS011;42154;51.992;5.896;2024-03-25T07:05:49;13.13;;;3.53;;
56239;SDS011;42154;51.992;5.896;2024-03-25T07:08:20;9.85;;;3.60;;
56239;SDS011;42154;51.992;5.896;2024-03-25T07:10:45;10.00;;;3.33;;
56239;SDS011;42154;51.992;5.896;2024-03-25T07:13:11;10.95;;;3.65;;
56239;SDS011;42154;51.992;5.896;2024-03-25T07:15:37;9.07;;;3.50;;
56239;SDS011;42154;51.992;5.896;2024-03-25T07:18:04;12.50;;;3.97;;
56239;SDS011;42154;51.992;5.896;2024-03-25T07:20:30;9.63;;;3.60;;
56239;SDS011;42154;51.992;5.896;2024-03-25T07:22:57;12.68;;;3.65;;
56239;SDS011;42154;51.992;5.896;2024-03-25T07:25:23;11.68;;;4.07;;
56239;SDS011;42154;51.992;5.896;2024-03-25T07:27:50;10.80;;;4.40;;
56239;SDS011;42154;51.992;5.896;2024-03-25T07:30:16;6.22;;;3.17;;
56239;SDS011;42154;51.992;5.896;2024-03-25T07:32:42;11.55;;;3.83;;
56239;SDS011;42154;51.992;5.896;2024-03-25T07:35:10;10.18;;;3.13;;
56239;SDS011;42154;51.992;5.896;2024-03-25T07:37:36;15.32;;;4.00;;
56239;SDS011;42154;51.992;5.896;2024-03-25T07:40:05;9.55;;;2.70;;
56239;SDS011;42154;51.992;5.896;2024-03-25T07:42:31;10.80;;;3.90;;
56239;SDS011;42154;51.992;5.896;2024-03-25T07:44:57;13.35;;;4.63;;
56239;SDS011;42154;51.992;5.896;2024-03-25T07:47:23;12.30;;;4.10;;
56239;SDS011;42154;51.992;5.896;2024-03-25T07:49:48;9.13;;;3.58;;
56239;SDS011;42154;51.992;5.896;2024-03-25T07:52:14;9.55;;;3.50;;
56239;SDS011;42154;51.992;5.896;2024-03-25T07:54:40;12.18;;;3.35;;
56239;SDS011;42154;51.992;5.896;2024-03-25T07:57:08;11.07;;;2.88;;
56239;SDS011;42154;51.992;5.896;2024-03-25T07:59:34;7.82;;;2.60;;
56239;SDS011;42154;51.992;5.896;2024-03-25T08:02:00;6.22;;;2.92;;
56239;SDS011;42154;51.992;5.896;2024-03-25T08:04:26;6.32;;;2.70;;
56239;SDS011;42154;51.992;5.896;2024-03-25T08:06:51;7.65;;;2.53;;
56239;SDS011;42154;51.992;5.896;2024-03-25T08:09:17;11.52;;;2.92;;
56239;SDS011;42154;51.992;5.896;2024-03-25T08:11:43;8.38;;;3.40;;
56239;SDS011;42154;51.992;5.896;2024-03-25T08:14:09;8.10;;;3.13;;
56239;SDS011;42154;51.992;5.896;2024-03-25T08:16:35;8.25;;;3.40;;
56239;SDS011;42154;51.992;5.896;2024-03-25T08:19:01;7.10;;;2.35;;
56239;SDS011;42154;51.992;5.896;2024-03-25T08:21:27;14.07;;;3.42;;
56239;SDS011;42154;51.992;5.896;2024-03-25T08:23:53;8.85;;;3.30;;
56239;SDS011;42154;51.992;5.896;2024-03-25T08:26:18;7.38;;;2.55;;
56239;SDS011;42154;51.992;5.896;2024-03-25T08:28:44;7.57;;;3.25;;
56239;SDS011;42154;51.992;5.896;2024-03-25T08:31:10;9.65;;;3.10;;
56239;SDS011;42154;51.992;5.896;2024-03-25T08:33:36;12.95;;;3.67;;
56239;SDS011;42154;51.992;5.896;2024-03-25T08:36:01;11.35;;;3.83;;
56239;SDS011;42154;51.992;5.896;2024-03-25T08:38:28;10.68;;;3.65;;
56239;SDS011;42154;51.992;5.896;2024-03-25T08:40:54;8.85;;;3.08;;
56239;SDS011;42154;51.992;5.896;2024-03-25T08:43:20;8.88;;;3.40;;
56239;SDS011;42154;51.992;5.896;2024-03-25T08:45:45;8.43;;;2.63;;
56239;SDS011;42154;51.992;5.896;2024-03-25T08:48:12;9.05;;;3.20;;
56239;SDS011;42154;51.992;5.896;2024-03-25T08:50:37;8.35;;;2.47;;
56239;SDS011;42154;51.992;5.896;2024-03-25T08:53:03;11.27;;;3.42;;
56239;SDS011;42154;51.992;5.896;2024-03-25T08:55:29;9.80;;;3.20;;
56239;SDS011;42154;51.992;5.896;2024-03-25T08:57:56;7.05;;;2.97;;
56239;SDS011;42154;51.992;5.896;2024-03-25T09:00:24;13.45;;;3.88;;
56239;SDS011;42154;51.992;5.896;2024-03-25T09:02:55;12.77;;;3.33;;
56239;SDS011;42154;51.992;5.896;2024-03-25T09:05:21;14.52;;;3.95;;
56239;SDS011;42154;51.992;5.896;2024-03-25T09:07:50;12.10;;;4.15;;
56239;SDS011;42154;51.992;5.896;2024-03-25T09:10:17;8.90;;;2.85;;
56239;SDS011;42154;51.992;5.896;2024-03-25T09:13:02;9.05;;;2.53;;
56239;SDS011;42154;51.992;5.896;2024-03-25T09:15:29;10.20;;;3.40;;
56239;SDS011;42154;51.992;5.896;2024-03-25T09:17:54;6.45;;;2.97;;
56239;SDS011;42154;51.992;5.896;2024-03-25T09:20:20;8.75;;;2.00;;
56239;SDS011;42154;51.992;5.896;2024-03-25T09:22:46;7.10;;;2.72;;
56239;SDS011;42154;51.992;5.896;2024-03-25T09:25:15;9.35;;;3.10;;
56239;SDS011;42154;51.992;5.896;2024-03-25T09:27:50;9.18;;;2.90;;
56239;SDS011;42154;51.992;5.896;2024-03-25T09:30:16;9.55;;;3.80;;
56239;SDS011;42154;51.992;5.896;2024-03-25T09:32:44;9.55;;;3.05;;
56239;SDS011;42154;51.992;5.896;2024-03-25T09:35:10;13.65;;;3.90;;
56239;SDS011;42154;51.992;5.896;2024-03-25T09:37:36;9.52;;;3.67;;
56239;SDS011;42154;51.992;5.896;2024-03-25T09:40:03;7.75;;;3.38;;
56239;SDS011;42154;51.992;5.896;2024-03-25T09:42:47;9.63;;;3.65;;
56239;SDS011;42154;51.992;5.896;2024-03-25T09:45:17;14.60;;;3.97;;
56239;SDS011;42154;51.992;5.896;2024-03-25T09:47:46;12.02;;;3.63;;
56239;SDS011;42154;51.992;5.896;2024-03-25T09:50:13;10.40;;;3.42;;
56239;SDS011;42154;51.992;5.896;2024-03-25T09:52:53;8.60;;;3.83;;
56239;SDS011;42154;51.992;5.896;2024-03-25T09:55:19;9.25;;;3.50;;
56239;SDS011;42154;51.992;5.896;2024-03-25T09:57:45;13.13;;;3.88;;
56239;SDS011;42154;51.992;5.896;2024-03-25T10:00:11;11.48;;;3.20;;
56239;SDS011;42154;51.992;5.896;2024-03-25T10:02:43;12.48;;;3.35;;
56239;SDS011;42154;51.992;5.896;2024-03-25T10:05:09;10.07;;;3.05;;
56239;SDS011;42154;51.992;5.896;2024-03-25T10:07:34;11.18;;;2.65;;
56239;SDS011;42154;51.992;5.896;2024-03-25T10:10:04;10.18;;;2.90;;
56239;SDS011;42154;51.992;5.896;2024-03-25T10:12:31;8.68;;;2.30;;
56239;SDS011;42154;51.992;5.896;2024-03-25T10:14:57;8.98;;;2.85;;
56239;SDS011;42154;51.992;5.896;2024-03-25T10:17:23;7.75;;;2.63;;
56239;SDS011;42154;51.992;5.896;2024-03-25T10:19:49;12.15;;;3.38;;
56239;SDS011;42154;51.992;5.896;2024-03-25T10:22:15;11.18;;;3.58;;
56239;SDS011;42154;51.992;5.896;2024-03-25T10:24:41;7.00;;;2.60;;
56239;SDS011;42154;51.992;5.896;2024-03-25T10:27:17;10.38;;;3.00;;
56239;SDS011;42154;51.992;5.896;2024-03-25T10:29:47;9.13;;;3.33;;
56239;SDS011;42154;51.992;5.896;2024-03-25T10:32:13;6.00;;;2.55;;
56239;SDS011;42154;51.992;5.896;2024-03-25T10:34:39;9.23;;;2.58;;
56239;SDS011;42154;51.992;5.896;2024-03-25T10:37:08;6.53;;;2.58;;
56239;SDS011;42154;51.992;5.896;2024-03-25T10:39:36;10.00;;;2.55;;
56239;SDS011;42154;51.992;5.896;2024-03-25T10:42:08;7.82;;;2.50;;
56239;SDS011;42154;51.992;5.896;2024-03-25T10:44:38;9.15;;;2.45;;
56239;SDS011;42154;51.992;5.896;2024-03-25T10:47:05;7.47;;;2.25;;
56239;SDS011;42154;51.992;5.896;2024-03-25T10:49:34;6.90;;;2.22;;
56239;SDS011;42154;51.992;5.896;2024-03-25T10:52:21;7.90;;;2.92;;
56239;SDS011;42154;51.992;5.896;2024-03-25T10:54:50;8.90;;;2.30;;
56239;SDS011;42154;51.992;5.896;2024-03-25T10:57:16;6.57;;;2.15;;
56239;SDS011;42154;51.992;5.896;2024-03-25T10:59:42;6.70;;;2.30;;
56239;SDS011;42154;51.992;5.896;2024-03-25T11:02:11;6.72;;;2.45;;
56239;SDS011;42154;51.992;5.896;2024-03-25T11:04:37;7.18;;;2.20;;
56239;SDS011;42154;51.992;5.896;2024-03-25T11:07:12;6.97;;;2.33;;
56239;SDS011;42154;51.992;5.896;2024-03-25T11:09:39;5.97;;;1.85;;
56239;SDS011;42154;51.992;5.896;2024-03-25T11:12:06;8.77;;;2.13;;
56239;SDS011;42154;51.992;5.896;2024-03-25T11:14:33;5.38;;;2.00;;
56239;SDS011;42154;51.992;5.896;2024-03-25T11:16:59;8.60;;;2.70;;
56239;SDS011;42154;51.992;5.896;2024-03-25T11:19:26;5.40;;;2.33;;
56239;SDS011;42154;51.992;5.896;2024-03-25T11:21:53;6.60;;;1.90;;
56239;SDS011;42154;51.992;5.896;2024-03-25T11:24:28;5.22;;;2.05;;
56239;SDS011;42154;51.992;5.896;2024-03-25T11:26:55;6.57;;;2.17;;
56239;SDS011;42154;51.992;5.896;2024-03-25T11:29:21;6.72;;;1.73;;
56239;SDS011;42154;51.992;5.896;2024-03-25T11:31:49;8.40;;;2.13;;
56239;SDS011;42154;51.992;5.896;2024-03-25T11:34:18;7.07;;;2.10;;
56239;SDS011;42154;51.992;5.896;2024-03-25T11:36:44;7.00;;;2.25;;
56239;SDS011;42154;51.992;5.896;2024-03-25T11:39:11;7.75;;;1.90;;
56239;SDS011;42154;51.992;5.896;2024-03-25T11:41:41;8.20;;;2.25;;
56239;SDS011;42154;51.992;5.896;2024-03-25T11:44:07;5.22;;;2.28;;
56239;SDS011;42154;51.992;5.896;2024-03-25T11:46:36;5.53;;;2.08;;
56239;SDS011;42154;51.992;5.896;2024-03-25T11:49:06;5.00;;;1.92;;
56239;SDS011;42154;51.992;5.896;2024-03-25T11:51:33;9.45;;;1.90;;
56239;SDS011;42154;51.992;5.896;2024-03-25T11:53:59;9.02;;;2.13;;
56239;SDS011;42154;51.992;5.896;2024-03-25T11:56:25;7.40;;;2.00;;
56239;SDS011;42154;51.992;5.896;2024-03-25T11:58:51;5.00;;;1.75;;
56239;SDS011;42154;51.992;5.896;2024-03-25T12:01:17;6.30;;;2.33;;
56239;SDS011;42154;51.992;5.896;2024-03-25T12:03:43;3.90;;;1.70;;
56239;SDS011;42154;51.992;5.896;2024-03-25T12:06:09;6.30;;;2.50;;
56239;SDS011;42154;51.992;5.896;2024-03-25T12:08:35;6.90;;;2.38;;
56239;SDS011;42154;51.992;5.896;2024-03-25T12:11:10;6.30;;;1.80;;
56239;SDS011;42154;51.992;5.896;2024-03-25T12:13:44;7.63;;;2.40;;
56239;SDS011;42154;51.992;5.896;2024-03-25T12:16:10;7.05;;;2.80;;
56239;SDS011;42154;51.992;5.896;2024-03-25T12:18:39;7.75;;;2.20;;
56239;SDS011;42154;51.992;5.896;2024-03-25T12:21:06;7.35;;;2.22;;
56239;SDS011;42154;51.992;5.896;2024-03-25T12:23:33;6.72;;;2.30;;
56239;SDS011;42154;51.992;5.896;2024-03-25T12:25:59;5.18;;;2.08;;
56239;SDS011;42154;51.992;5.896;2024-03-25T12:28:26;5.57;;;1.83;;
56239;SDS011;42154;51.992;5.896;2024-03-25T12:30:53;4.45;;;1.60;;
56239;SDS011;42154;51.992;5.896;2024-03-25T12:33:21;6.60;;;1.85;;
56239;SDS011;42154;51.992;5.896;2024-03-25T12:35:51;5.65;;;1.80;;
56239;SDS011;42154;51.992;5.896;2024-03-25T12:41:08;4.97;;;2.47;;
56239;SDS011;42154;51.992;5.896;2024-03-25T12:43:36;7.50;;;2.53;;
56239;SDS011;42154;51.992;5.896;2024-03-25T12:46:09;5.70;;;1.98;;
56239;SDS011;42154;51.992;5.896;2024-03-25T12:48:36;6.30;;;2.30;;
56239;SDS011;42154;51.992;5.896;2024-03-25T12:51:02;5.40;;;2.00;;
56239;SDS011;42154;51.992;5.896;2024-03-25T12:53:28;3.35;;;1.52;;
56239;SDS011;42154;51.992;5.896;2024-03-25T12:55:54;5.10;;;1.83;;
56239;SDS011;42154;51.992;5.896;2024-03-25T12:58:19;3.40;;;1.88;;
56239;SDS011;42154;51.992;5.896;2024-03-25T13:00:45;8.70;;;2.17;;
56239;SDS011;42154;51.992;5.896;2024-03-25T13:03:11;4.05;;;1.90;;
56239;SDS011;42154;51.992;5.896;2024-03-25T13:05:37;6.53;;;2.35;;
56239;SDS011;42154;51.992;5.896;2024-03-25T13:08:04;4.70;;;1.90;;
56239;SDS011;42154;51.992;5.896;2024-03-25T13:10:30;5.80;;;2.22;;
56239;SDS011;42154;51.992;5.896;2024-03-25T13:12:56;4.75;;;2.10;;
56239;SDS011;42154;51.992;5.896;2024-03-25T13:15:22;6.80;;;2.47;;
56239;SDS011;42154;51.992;5.896;2024-03-25T13:17:48;5.05;;;2.20;;
56239;SDS011;42154;51.992;5.896;2024-03-25T13:20:14;4.68;;;2.70;;
56239;SDS011;42154;51.992;5.896;2024-03-25T13:22:40;7.20;;;2.88;;
56239;SDS011;42154;51.992;5.896;2024-03-25T13:25:08;6.93;;;2.75;;
56239;SDS011;42154;51.992;5.896;2024-03-25T13:27:34;5.05;;;2.47;;
56239;SDS011;42154;51.992;5.896;2024-03-25T13:29:59;4.70;;;2.30;;
56239;SDS011;42154;51.992;5.896;2024-03-25T13:32:25;5.45;;;2.40;;
56239;SDS011;42154;51.992;5.896;2024-03-25T13:34:51;4.72;;;2.05;;
56239;SDS011;42154;51.992;5.896;2024-03-25T13:37:17;2.55;;;1.58;;
56239;SDS011;42154;51.992;5.896;2024-03-25T13:39:42;5.32;;;2.38;;
56239;SDS011;42154;51.992;5.896;2024-03-25T13:42:08;5.20;;;2.10;;
56239;SDS011;42154;51.992;5.896;2024-03-25T13:44:34;4.35;;;2.55;;
56239;SDS011;42154;51.992;5.896;2024-03-25T13:47:00;5.95;;;2.53;;
56239;SDS011;42154;51.992;5.896;2024-03-25T13:49:25;8.68;;;2.33;;
56239;SDS011;42154;51.992;5.896;2024-03-25T13:51:56;7.25;;;2.40;;
56239;SDS011;42154;51.992;5.896;2024-03-25T13:54:24;3.90;;;2.00;;
56239;SDS011;42154;51.992;5.896;2024-03-25T13:56:53;4.85;;;1.70;;
56239;SDS011;42154;51.992;5.896;2024-03-25T13:59:19;3.75;;;1.98;;
56239;SDS011;42154;51.992;5.896;2024-03-25T14:01:44;3.30;;;1.70;;
56239;SDS011;42154;51.992;5.896;2024-03-25T14:04:11;5.20;;;2.40;;
56239;SDS011;42154;51.992;5.896;2024-03-25T14:06:37;4.47;;;2.10;;
56239;SDS011;42154;51.992;5.896;2024-03-25T14:09:03;4.45;;;1.73;;
56239;SDS011;42154;51.992;5.896;2024-03-25T14:11:37;4.25;;;1.80;;
56239;SDS011;42154;51.992;5.896;2024-03-25T14:14:03;4.57;;;2.20;;
56239;SDS011;42154;51.992;5.896;2024-03-25T14:16:29;4.88;;;1.60;;
56239;SDS011;42154;51.992;5.896;2024-03-25T14:18:55;3.28;;;1.70;;
56239;SDS011;42154;51.992;5.896;2024-03-25T14:21:20;5.30;;;2.10;;
56239;SDS011;42154;51.992;5.896;2024-03-25T14:23:46;4.63;;;2.03;;
56239;SDS011;42154;51.992;5.896;2024-03-25T14:26:12;4.25;;;1.70;;
56239;SDS011;42154;51.992;5.896;2024-03-25T14:28:40;2.53;;;1.40;;
56239;SDS011;42154;51.992;5.896;2024-03-25T14:31:06;2.08;;;1.20;;
56239;SDS011;42154;51.992;5.896;2024-03-25T14:33:31;3.30;;;1.25;;
56239;SDS011;42154;51.992;5.896;2024-03-25T14:35:57;3.20;;;1.70;;
56239;SDS011;42154;51.992;5.896;2024-03-25T14:38:23;3.92;;;1.67;;
56239;SDS011;42154;51.992;5.896;2024-03-25T14:40:48;4.53;;;1.60;;